sensor_id;sensor_type;location;lat;lon;timestamp;temperature;humidity
19536;HTU21D;9913;51.168;4.124;2023-05-07T00:02:21;15.85;68.98
19536;HTU21D;9913;51.168;4.124;2023-05-07T00:04:49;15.87;69.10
19536;HTU21D;9913;51.168;4.124;2023-05-07T00:07:18;15.88;68.97
19536;HTU21D;9913;51.168;4.124;2023-05-07T00:09:47;15.93;68.85
19536;HTU21D;9913;51.168;4.124;2023-05-07T00:12:15;15.90;68.91
19536;HTU21D;9913;51.168;4.124;2023-05-07T00:14:43;15.92;69.00
19536;HTU21D;9913;51.168;4.124;2023-05-07T00:17:12;15.87;68.91
19536;HTU21D;9913;51.168;4.124;2023-05-07T00:19:41;15.82;68.93
19536;HTU21D;9913;51.168;4.124;2023-05-07T00:22:10;15.81;68.90
19536;HTU21D;9913;51.168;4.124;2023-05-07T00:24:38;15.83;68.83
19536;HTU21D;9913;51.168;4.124;2023-05-07T00:27:06;15.82;68.78
19536;HTU21D;9913;51.168;4.124;2023-05-07T00:29:35;15.76;68.71
19536;HTU21D;9913;51.168;4.124;2023-05-07T00:32:04;15.74;69.13
19536;HTU21D;9913;51.168;4.124;2023-05-07T00:34:32;15.78;68.92
19536;HTU21D;9913;51.168;4.124;2023-05-07T00:37:02;15.68;69.01
19536;HTU21D;9913;51.168;4.124;2023-05-07T00:39:32;15.68;69.16
19536;HTU21D;9913;51.168;4.124;2023-05-07T00:42:01;15.72;69.02
19536;HTU21D;9913;51.168;4.124;2023-05-07T00:44:29;15.67;69.01
19536;HTU21D;9913;51.168;4.124;2023-05-07T00:46:58;15.68;69.13
19536;HTU21D;9913;51.168;4.124;2023-05-07T00:49:34;15.58;68.98
19536;HTU21D;9913;51.168;4.124;2023-05-07T00:52:05;15.53;69.22
19536;HTU21D;9913;51.168;4.124;2023-05-07T00:54:34;15.46;69.08
19536;HTU21D;9913;51.168;4.124;2023-05-07T00:57:03;15.42;69.23
19536;HTU21D;9913;51.168;4.124;2023-05-07T00:59:32;15.42;69.22
19536;HTU21D;9913;51.168;4.124;2023-05-07T01:02:00;15.38;69.21
19536;HTU21D;9913;51.168;4.124;2023-05-07T01:04:29;15.33;69.42
19536;HTU21D;9913;51.168;4.124;2023-05-07T01:06:58;15.25;69.37
19536;HTU21D;9913;51.168;4.124;2023-05-07T01:09:29;15.28;69.52
19536;HTU21D;9913;51.168;4.124;2023-05-07T01:11:58;15.25;69.45
19536;HTU21D;9913;51.168;4.124;2023-05-07T01:14:27;15.22;69.58
19536;HTU21D;9913;51.168;4.124;2023-05-07T01:16:56;15.22;69.51
19536;HTU21D;9913;51.168;4.124;2023-05-07T01:19:26;15.19;69.49
19536;HTU21D;9913;51.168;4.124;2023-05-07T01:22:02;15.22;69.58
19536;HTU21D;9913;51.168;4.124;2023-05-07T01:24:36;15.26;69.48
19536;HTU21D;9913;51.168;4.124;2023-05-07T01:27:07;15.22;69.52
19536;HTU21D;9913;51.168;4.124;2023-05-07T01:29:36;15.23;69.45
19536;HTU21D;9913;51.168;4.124;2023-05-07T01:32:05;15.23;69.51
19536;HTU21D;9913;51.168;4.124;2023-05-07T01:34:34;15.15;69.58
19536;HTU21D;9913;51.168;4.124;2023-05-07T01:37:04;15.14;69.61
19536;HTU21D;9913;51.168;4.124;2023-05-07T01:39:33;15.12;69.58
19536;HTU21D;9913;51.168;4.124;2023-05-07T01:42:02;15.16;69.58
19536;HTU21D;9913;51.168;4.124;2023-05-07T01:44:31;15.14;69.58
19536;HTU21D;9913;51.168;4.124;2023-05-07T01:46:59;15.11;69.45
19536;HTU21D;9913;51.168;4.124;2023-05-07T01:49:29;15.07;69.54
19536;HTU21D;9913;51.168;4.124;2023-05-07T01:51:58;15.01;69.74
19536;HTU21D;9913;51.168;4.124;2023-05-07T01:54:26;14.98;69.71
19536;HTU21D;9913;51.168;4.124;2023-05-07T01:56:57;14.89;69.63
19536;HTU21D;9913;51.168;4.124;2023-05-07T01:59:27;14.99;69.72
19536;HTU21D;9913;51.168;4.124;2023-05-07T02:01:55;14.94;69.61
19536;HTU21D;9913;51.168;4.124;2023-05-07T02:04:23;14.89;69.66
19536;HTU21D;9913;51.168;4.124;2023-05-07T02:06:53;14.88;69.72
19536;HTU21D;9913;51.168;4.124;2023-05-07T02:09:21;14.89;69.71
19536;HTU21D;9913;51.168;4.124;2023-05-07T02:11:51;14.89;69.68
19536;HTU21D;9913;51.168;4.124;2023-05-07T02:14:20;14.97;69.66
19536;HTU21D;9913;51.168;4.124;2023-05-07T02:16:50;14.93;69.57
19536;HTU21D;9913;51.168;4.124;2023-05-07T02:19:19;15.00;69.61
19536;HTU21D;9913;51.168;4.124;2023-05-07T02:21:48;14.94;69.52
19536;HTU21D;9913;51.168;4.124;2023-05-07T02:24:17;14.95;69.63
19536;HTU21D;9913;51.168;4.124;2023-05-07T02:26:45;14.97;69.58
19536;HTU21D;9913;51.168;4.124;2023-05-07T02:29:14;15.06;69.52
19536;HTU21D;9913;51.168;4.124;2023-05-07T02:31:42;15.00;69.45
19536;HTU21D;9913;51.168;4.124;2023-05-07T02:34:12;15.00;69.49
19536;HTU21D;9913;51.168;4.124;2023-05-07T02:36:40;15.00;69.37
19536;HTU21D;9913;51.168;4.124;2023-05-07T02:39:12;15.06;69.58
19536;HTU21D;9913;51.168;4.124;2023-05-07T02:41:40;15.00;69.40
19536;HTU21D;9913;51.168;4.124;2023-05-07T02:44:08;15.02;69.45
19536;HTU21D;9913;51.168;4.124;2023-05-07T02:46:38;15.03;69.45
19536;HTU21D;9913;51.168;4.124;2023-05-07T02:49:09;15.09;69.41
19536;HTU21D;9913;51.168;4.124;2023-05-07T02:51:39;15.00;69.45
19536;HTU21D;9913;51.168;4.124;2023-05-07T02:54:12;15.02;69.52
19536;HTU21D;9913;51.168;4.124;2023-05-07T02:56:41;15.00;69.39
19536;HTU21D;9913;51.168;4.124;2023-05-07T02:59:09;15.00;69.42
19536;HTU21D;9913;51.168;4.124;2023-05-07T03:01:40;15.07;69.45
19536;HTU21D;9913;51.168;4.124;2023-05-07T03:04:12;15.08;69.40
19536;HTU21D;9913;51.168;4.124;2023-05-07T03:06:41;14.99;69.34
19536;HTU21D;9913;51.168;4.124;2023-05-07T03:09:10;14.99;69.45
19536;HTU21D;9913;51.168;4.124;2023-05-07T03:11:38;14.99;69.45
19536;HTU21D;9913;51.168;4.124;2023-05-07T03:14:07;14.99;69.36
19536;HTU21D;9913;51.168;4.124;2023-05-07T03:16:35;15.04;69.44
19536;HTU21D;9913;51.168;4.124;2023-05-07T03:19:04;14.96;69.34
19536;HTU21D;9913;51.168;4.124;2023-05-07T03:21:32;14.97;69.38
19536;HTU21D;9913;51.168;4.124;2023-05-07T03:24:03;14.98;69.45
19536;HTU21D;9913;51.168;4.124;2023-05-07T03:26:31;14.91;69.55
19536;HTU21D;9913;51.168;4.124;2023-05-07T03:28:59;14.80;69.62
19536;HTU21D;9913;51.168;4.124;2023-05-07T03:31:28;14.80;69.67
19536;HTU21D;9913;51.168;4.124;2023-05-07T03:33:57;14.84;69.68
19536;HTU21D;9913;51.168;4.124;2023-05-07T03:36:26;14.88;69.55
19536;HTU21D;9913;51.168;4.124;2023-05-07T03:38:56;14.97;69.53
19536;HTU21D;9913;51.168;4.124;2023-05-07T03:41:33;14.99;69.43
19536;HTU21D;9913;51.168;4.124;2023-05-07T03:44:02;15.01;69.28
19536;HTU21D;9913;51.168;4.124;2023-05-07T03:46:31;15.08;69.29
19536;HTU21D;9913;51.168;4.124;2023-05-07T03:49:00;15.07;69.22
19536;HTU21D;9913;51.168;4.124;2023-05-07T03:51:30;15.08;69.26
19536;HTU21D;9913;51.168;4.124;2023-05-07T03:53:59;15.12;69.20
19536;HTU21D;9913;51.168;4.124;2023-05-07T03:56:30;15.15;69.10
19536;HTU21D;9913;51.168;4.124;2023-05-07T03:59:00;15.18;69.16
19536;HTU21D;9913;51.168;4.124;2023-05-07T04:01:28;15.14;69.12
19536;HTU21D;9913;51.168;4.124;2023-05-07T04:03:57;15.21;69.29
19536;HTU21D;9913;51.168;4.124;2023-05-07T04:06:26;15.16;69.24
19536;HTU21D;9913;51.168;4.124;2023-05-07T04:08:54;15.13;69.15
19536;HTU21D;9913;51.168;4.124;2023-05-07T04:11:23;15.04;69.21
19536;HTU21D;9913;51.168;4.124;2023-05-07T04:13:51;15.09;69.39
19536;HTU21D;9913;51.168;4.124;2023-05-07T04:16:24;15.13;69.30
19536;HTU21D;9913;51.168;4.124;2023-05-07T04:18:52;15.13;69.27
19536;HTU21D;9913;51.168;4.124;2023-05-07T04:21:21;15.16;69.10
19536;HTU21D;9913;51.168;4.124;2023-05-07T04:23:50;15.17;69.15
19536;HTU21D;9913;51.168;4.124;2023-05-07T04:26:19;15.17;69.12
19536;HTU21D;9913;51.168;4.124;2023-05-07T04:28:48;15.15;69.13
19536;HTU21D;9913;51.168;4.124;2023-05-07T04:31:16;15.15;69.19
19536;HTU21D;9913;51.168;4.124;2023-05-07T04:33:50;15.19;69.29
19536;HTU21D;9913;51.168;4.124;2023-05-07T04:36:19;15.17;69.33
19536;HTU21D;9913;51.168;4.124;2023-05-07T04:38:57;15.17;69.13
19536;HTU21D;9913;51.168;4.124;2023-05-07T04:41:26;15.13;69.13
19536;HTU21D;9913;51.168;4.124;2023-05-07T04:43:56;15.17;69.23
19536;HTU21D;9913;51.168;4.124;2023-05-07T04:46:28;15.16;69.14
19536;HTU21D;9913;51.168;4.124;2023-05-07T04:48:58;15.23;69.15
19536;HTU21D;9913;51.168;4.124;2023-05-07T04:51:27;15.25;69.20
19536;HTU21D;9913;51.168;4.124;2023-05-07T04:53:56;15.26;69.08
19536;HTU21D;9913;51.168;4.124;2023-05-07T04:56:27;15.21;69.26
19536;HTU21D;9913;51.168;4.124;2023-05-07T04:58:56;15.17;69.06
19536;HTU21D;9913;51.168;4.124;2023-05-07T05:01:25;15.27;69.10
19536;HTU21D;9913;51.168;4.124;2023-05-07T05:03:53;15.30;69.10
19536;HTU21D;9913;51.168;4.124;2023-05-07T05:06:23;15.36;69.05
19536;HTU21D;9913;51.168;4.124;2023-05-07T05:08:51;15.40;68.91
19536;HTU21D;9913;51.168;4.124;2023-05-07T05:11:20;15.47;68.94
19536;HTU21D;9913;51.168;4.124;2023-05-07T05:13:49;15.45;69.01
19536;HTU21D;9913;51.168;4.124;2023-05-07T05:16:19;15.53;68.69
19536;HTU21D;9913;51.168;4.124;2023-05-07T05:18:48;15.61;68.78
19536;HTU21D;9913;51.168;4.124;2023-05-07T05:21:18;15.70;68.65
19536;HTU21D;9913;51.168;4.124;2023-05-07T05:23:51;15.76;68.56
19536;HTU21D;9913;51.168;4.124;2023-05-07T05:26:22;15.66;68.66
19536;HTU21D;9913;51.168;4.124;2023-05-07T05:28:51;15.68;68.76
19536;HTU21D;9913;51.168;4.124;2023-05-07T05:31:22;15.65;68.75
19536;HTU21D;9913;51.168;4.124;2023-05-07T05:33:51;15.65;68.71
19536;HTU21D;9913;51.168;4.124;2023-05-07T05:36:19;15.67;69.03
19536;HTU21D;9913;51.168;4.124;2023-05-07T05:38:51;15.77;68.68
19536;HTU21D;9913;51.168;4.124;2023-05-07T05:41:19;15.68;68.73
19536;HTU21D;9913;51.168;4.124;2023-05-07T05:43:48;15.66;68.74
19536;HTU21D;9913;51.168;4.124;2023-05-07T05:46:18;15.73;68.64
19536;HTU21D;9913;51.168;4.124;2023-05-07T05:48:49;15.71;68.69
19536;HTU21D;9913;51.168;4.124;2023-05-07T05:51:17;15.68;68.75
19536;HTU21D;9913;51.168;4.124;2023-05-07T05:53:45;15.78;68.73
19536;HTU21D;9913;51.168;4.124;2023-05-07T05:56:16;15.74;68.75
19536;HTU21D;9913;51.168;4.124;2023-05-07T05:58:44;15.69;68.74
19536;HTU21D;9913;51.168;4.124;2023-05-07T06:01:12;15.61;68.87
19536;HTU21D;9913;51.168;4.124;2023-05-07T06:03:41;15.58;68.99
19536;HTU21D;9913;51.168;4.124;2023-05-07T06:06:13;15.63;69.03
19536;HTU21D;9913;51.168;4.124;2023-05-07T06:08:43;15.69;68.97
19536;HTU21D;9913;51.168;4.124;2023-05-07T06:11:18;15.60;68.97
19536;HTU21D;9913;51.168;4.124;2023-05-07T06:13:47;15.74;68.90
19536;HTU21D;9913;51.168;4.124;2023-05-07T06:16:15;15.81;68.70
19536;HTU21D;9913;51.168;4.124;2023-05-07T06:18:44;15.82;68.78
19536;HTU21D;9913;51.168;4.124;2023-05-07T06:21:15;15.98;68.68
19536;HTU21D;9913;51.168;4.124;2023-05-07T06:23:43;15.88;68.66
19536;HTU21D;9913;51.168;4.124;2023-05-07T06:26:12;15.83;68.63
19536;HTU21D;9913;51.168;4.124;2023-05-07T06:28:44;15.87;68.96
19536;HTU21D;9913;51.168;4.124;2023-05-07T06:31:14;15.96;68.68
19536;HTU21D;9913;51.168;4.124;2023-05-07T06:33:53;15.84;68.87
19536;HTU21D;9913;51.168;4.124;2023-05-07T06:36:25;15.85;68.73
19536;HTU21D;9913;51.168;4.124;2023-05-07T06:38:57;15.86;68.65
19536;HTU21D;9913;51.168;4.124;2023-05-07T06:41:25;15.92;68.71
19536;HTU21D;9913;51.168;4.124;2023-05-07T06:43:57;16.05;68.62
19536;HTU21D;9913;51.168;4.124;2023-05-07T06:46:35;16.10;68.67
19536;HTU21D;9913;51.168;4.124;2023-05-07T06:49:05;16.08;68.42
19536;HTU21D;9913;51.168;4.124;2023-05-07T06:51:33;16.13;68.55
19536;HTU21D;9913;51.168;4.124;2023-05-07T06:54:03;16.24;68.56
19536;HTU21D;9913;51.168;4.124;2023-05-07T06:56:33;16.32;68.09
19536;HTU21D;9913;51.168;4.124;2023-05-07T06:59:05;16.39;68.33
19536;HTU21D;9913;51.168;4.124;2023-05-07T07:01:38;16.41;68.33
19536;HTU21D;9913;51.168;4.124;2023-05-07T07:04:08;16.52;68.53
19536;HTU21D;9913;51.168;4.124;2023-05-07T07:06:37;16.66;68.07
19536;HTU21D;9913;51.168;4.124;2023-05-07T07:09:09;16.61;67.64
19536;HTU21D;9913;51.168;4.124;2023-05-07T07:11:38;16.67;68.35
19536;HTU21D;9913;51.168;4.124;2023-05-07T07:14:08;16.59;67.68
19536;HTU21D;9913;51.168;4.124;2023-05-07T07:16:44;16.66;67.74
19536;HTU21D;9913;51.168;4.124;2023-05-07T07:19:15;16.73;68.47
19536;HTU21D;9913;51.168;4.124;2023-05-07T07:21:44;16.80;67.84
19536;HTU21D;9913;51.168;4.124;2023-05-07T07:24:13;16.91;68.10
19536;HTU21D;9913;51.168;4.124;2023-05-07T07:26:47;16.96;67.66
19536;HTU21D;9913;51.168;4.124;2023-05-07T07:29:17;17.08;67.61
19536;HTU21D;9913;51.168;4.124;2023-05-07T07:31:48;17.09;67.11
19536;HTU21D;9913;51.168;4.124;2023-05-07T07:34:18;17.13;67.74
19536;HTU21D;9913;51.168;4.124;2023-05-07T07:36:47;17.09;67.94
19536;HTU21D;9913;51.168;4.124;2023-05-07T07:39:18;16.92;68.15
19536;HTU21D;9913;51.168;4.124;2023-05-07T07:41:49;16.90;68.03
19536;HTU21D;9913;51.168;4.124;2023-05-07T07:44:20;17.04;67.53
19536;HTU21D;9913;51.168;4.124;2023-05-07T07:46:54;17.02;68.07
19536;HTU21D;9913;51.168;4.124;2023-05-07T07:49:24;16.84;67.72
19536;HTU21D;9913;51.168;4.124;2023-05-07T07:51:54;16.87;67.99
19536;HTU21D;9913;51.168;4.124;2023-05-07T07:54:23;16.96;68.27
19536;HTU21D;9913;51.168;4.124;2023-05-07T07:56:53;16.76;67.58
19536;HTU21D;9913;51.168;4.124;2023-05-07T07:59:23;16.62;68.02
19536;HTU21D;9913;51.168;4.124;2023-05-07T08:01:52;16.57;67.78
19536;HTU21D;9913;51.168;4.124;2023-05-07T08:04:25;16.61;68.12
19536;HTU21D;9913;51.168;4.124;2023-05-07T08:06:55;16.81;68.07
19536;HTU21D;9913;51.168;4.124;2023-05-07T08:09:24;16.78;68.15
19536;HTU21D;9913;51.168;4.124;2023-05-07T08:11:57;16.74;67.61
19536;HTU21D;9913;51.168;4.124;2023-05-07T08:14:27;16.57;68.13
19536;HTU21D;9913;51.168;4.124;2023-05-07T08:16:56;16.48;68.12
19536;HTU21D;9913;51.168;4.124;2023-05-07T08:19:25;16.52;68.35
19536;HTU21D;9913;51.168;4.124;2023-05-07T08:21:53;16.44;68.58
19536;HTU21D;9913;51.168;4.124;2023-05-07T08:24:23;16.45;68.42
19536;HTU21D;9913;51.168;4.124;2023-05-07T08:26:52;16.36;68.56
19536;HTU21D;9913;51.168;4.124;2023-05-07T08:29:21;16.36;68.32
19536;HTU21D;9913;51.168;4.124;2023-05-07T08:31:50;16.32;68.50
19536;HTU21D;9913;51.168;4.124;2023-05-07T08:34:19;16.37;68.28
19536;HTU21D;9913;51.168;4.124;2023-05-07T08:36:48;16.39;68.49
19536;HTU21D;9913;51.168;4.124;2023-05-07T08:39:20;16.35;68.29
19536;HTU21D;9913;51.168;4.124;2023-05-07T08:41:55;16.27;68.25
19536;HTU21D;9913;51.168;4.124;2023-05-07T08:44:26;16.31;68.42
19536;HTU21D;9913;51.168;4.124;2023-05-07T08:46:58;16.31;68.41
19536;HTU21D;9913;51.168;4.124;2023-05-07T08:49:29;16.20;68.39
19536;HTU21D;9913;51.168;4.124;2023-05-07T08:51:58;16.22;68.42
19536;HTU21D;9913;51.168;4.124;2023-05-07T08:54:27;16.22;68.46
19536;HTU21D;9913;51.168;4.124;2023-05-07T08:56:57;16.14;68.25
19536;HTU21D;9913;51.168;4.124;2023-05-07T08:59:26;16.18;68.54
19536;HTU21D;9913;51.168;4.124;2023-05-07T09:01:54;16.14;68.42
19536;HTU21D;9913;51.168;4.124;2023-05-07T09:04:24;16.24;68.28
19536;HTU21D;9913;51.168;4.124;2023-05-07T09:06:52;16.14;68.52
19536;HTU21D;9913;51.168;4.124;2023-05-07T09:09:22;16.22;68.37
19536;HTU21D;9913;51.168;4.124;2023-05-07T09:11:57;16.11;68.04
19536;HTU21D;9913;51.168;4.124;2023-05-07T09:14:28;16.18;68.33
19536;HTU21D;9913;51.168;4.124;2023-05-07T09:16:57;16.20;68.18
19536;HTU21D;9913;51.168;4.124;2023-05-07T09:19:27;16.06;68.07
19536;HTU21D;9913;51.168;4.124;2023-05-07T09:21:59;16.10;68.26
19536;HTU21D;9913;51.168;4.124;2023-05-07T09:24:31;15.96;68.29
19536;HTU21D;9913;51.168;4.124;2023-05-07T09:27:04;16.14;68.27
19536;HTU21D;9913;51.168;4.124;2023-05-07T09:29:33;16.13;68.17
19536;HTU21D;9913;51.168;4.124;2023-05-07T09:32:05;16.05;68.36
19536;HTU21D;9913;51.168;4.124;2023-05-07T09:34:36;16.07;68.00
19536;HTU21D;9913;51.168;4.124;2023-05-07T09:37:06;16.10;67.94
19536;HTU21D;9913;51.168;4.124;2023-05-07T09:39:42;16.28;67.91
19536;HTU21D;9913;51.168;4.124;2023-05-07T09:42:11;16.31;67.99
19536;HTU21D;9913;51.168;4.124;2023-05-07T09:44:43;16.31;67.71
19536;HTU21D;9913;51.168;4.124;2023-05-07T09:47:18;16.44;67.47
19536;HTU21D;9913;51.168;4.124;2023-05-07T09:49:56;16.43;67.39
19536;HTU21D;9913;51.168;4.124;2023-05-07T09:52:26;16.43;67.46
19536;HTU21D;9913;51.168;4.124;2023-05-07T09:55:03;16.55;67.65
19536;HTU21D;9913;51.168;4.124;2023-05-07T09:57:34;16.57;67.35
19536;HTU21D;9913;51.168;4.124;2023-05-07T10:00:06;16.74;67.59
19536;HTU21D;9913;51.168;4.124;2023-05-07T10:02:49;16.85;67.21
19536;HTU21D;9913;51.168;4.124;2023-05-07T10:05:28;16.82;67.17
19536;HTU21D;9913;51.168;4.124;2023-05-07T10:07:59;16.74;66.75
19536;HTU21D;9913;51.168;4.124;2023-05-07T10:10:33;16.82;66.97
19536;HTU21D;9913;51.168;4.124;2023-05-07T10:13:04;16.96;67.07
19536;HTU21D;9913;51.168;4.124;2023-05-07T10:15:41;17.01;67.03
19536;HTU21D;9913;51.168;4.124;2023-05-07T10:18:10;16.91;66.74
19536;HTU21D;9913;51.168;4.124;2023-05-07T10:20:43;17.11;66.88
19536;HTU21D;9913;51.168;4.124;2023-05-07T10:23:19;17.19;66.87
19536;HTU21D;9913;51.168;4.124;2023-05-07T10:25:53;17.01;66.91
19536;HTU21D;9913;51.168;4.124;2023-05-07T10:28:29;17.10;66.83
19536;HTU21D;9913;51.168;4.124;2023-05-07T10:31:08;17.05;66.97
19536;HTU21D;9913;51.168;4.124;2023-05-07T10:33:45;17.10;66.81
19536;HTU21D;9913;51.168;4.124;2023-05-07T10:36:17;17.31;66.46
19536;HTU21D;9913;51.168;4.124;2023-05-07T10:38:47;17.29;66.28
19536;HTU21D;9913;51.168;4.124;2023-05-07T10:41:16;17.37;65.94
19536;HTU21D;9913;51.168;4.124;2023-05-07T10:43:46;17.68;66.17
19536;HTU21D;9913;51.168;4.124;2023-05-07T10:46:23;17.76;66.72
19536;HTU21D;9913;51.168;4.124;2023-05-07T10:49:08;17.90;66.04
19536;HTU21D;9913;51.168;4.124;2023-05-07T10:52:15;17.80;66.10
19536;HTU21D;9913;51.168;4.124;2023-05-07T10:55:20;17.70;65.98
19536;HTU21D;9913;51.168;4.124;2023-05-07T10:58:23;17.92;66.50
19536;HTU21D;9913;51.168;4.124;2023-05-07T11:01:03;18.09;66.53
19536;HTU21D;9913;51.168;4.124;2023-05-07T11:04:14;18.02;67.40
19536;HTU21D;9913;51.168;4.124;2023-05-07T11:10:13;17.89;66.52
19536;HTU21D;9913;51.168;4.124;2023-05-07T11:12:55;18.18;66.31
19536;HTU21D;9913;51.168;4.124;2023-05-07T11:15:39;17.77;66.24
19536;HTU21D;9913;51.168;4.124;2023-05-07T11:18:18;17.67;66.15
19536;HTU21D;9913;51.168;4.124;2023-05-07T11:20:54;18.09;66.16
19536;HTU21D;9913;51.168;4.124;2023-05-07T11:24:07;18.19;66.65
19536;HTU21D;9913;51.168;4.124;2023-05-07T11:26:46;18.44;66.71
19536;HTU21D;9913;51.168;4.124;2023-05-07T11:29:17;18.52;68.16
19536;HTU21D;9913;51.168;4.124;2023-05-07T11:31:54;18.54;66.20
19536;HTU21D;9913;51.168;4.124;2023-05-07T11:34:27;18.80;66.62
19536;HTU21D;9913;51.168;4.124;2023-05-07T11:36:58;18.62;67.62
19536;HTU21D;9913;51.168;4.124;2023-05-07T11:39:43;18.40;66.42
19536;HTU21D;9913;51.168;4.124;2023-05-07T11:42:27;18.41;67.65
19536;HTU21D;9913;51.168;4.124;2023-05-07T11:44:56;18.15;66.40
19536;HTU21D;9913;51.168;4.124;2023-05-07T11:47:24;18.39;67.00
19536;HTU21D;9913;51.168;4.124;2023-05-07T11:49:54;18.65;67.07
19536;HTU21D;9913;51.168;4.124;2023-05-07T11:52:23;18.88;66.40
19536;HTU21D;9913;51.168;4.124;2023-05-07T11:54:53;18.87;66.67
19536;HTU21D;9913;51.168;4.124;2023-05-07T11:57:23;18.93;66.42
19536;HTU21D;9913;51.168;4.124;2023-05-07T11:59:54;18.95;66.98
19536;HTU21D;9913;51.168;4.124;2023-05-07T12:02:23;19.12;66.58
19536;HTU21D;9913;51.168;4.124;2023-05-07T12:04:52;19.25;66.97
19536;HTU21D;9913;51.168;4.124;2023-05-07T12:07:21;19.37;67.01
19536;HTU21D;9913;51.168;4.124;2023-05-07T12:09:52;19.46;67.17
19536;HTU21D;9913;51.168;4.124;2023-05-07T12:12:20;19.44;66.72
19536;HTU21D;9913;51.168;4.124;2023-05-07T12:14:48;18.95;66.25
19536;HTU21D;9913;51.168;4.124;2023-05-07T12:17:19;19.00;66.81
19536;HTU21D;9913;51.168;4.124;2023-05-07T12:19:47;19.33;66.23
19536;HTU21D;9913;51.168;4.124;2023-05-07T12:22:15;19.37;66.39
19536;HTU21D;9913;51.168;4.124;2023-05-07T12:24:44;18.61;66.86
19536;HTU21D;9913;51.168;4.124;2023-05-07T12:27:13;18.95;67.18
19536;HTU21D;9913;51.168;4.124;2023-05-07T12:29:44;19.27;66.47
19536;HTU21D;9913;51.168;4.124;2023-05-07T12:32:13;19.68;66.65
19536;HTU21D;9913;51.168;4.124;2023-05-07T12:34:44;19.65;67.15
19536;HTU21D;9913;51.168;4.124;2023-05-07T12:37:13;19.53;66.12
19536;HTU21D;9913;51.168;4.124;2023-05-07T12:39:46;19.39;66.37
19536;HTU21D;9913;51.168;4.124;2023-05-07T12:42:15;19.47;67.05
19536;HTU21D;9913;51.168;4.124;2023-05-07T12:44:46;20.06;66.02
19536;HTU21D;9913;51.168;4.124;2023-05-07T12:47:15;20.48;65.32
19536;HTU21D;9913;51.168;4.124;2023-05-07T12:49:45;20.31;66.72
19536;HTU21D;9913;51.168;4.124;2023-05-07T12:52:13;20.02;65.98
19536;HTU21D;9913;51.168;4.124;2023-05-07T12:54:44;20.03;67.83
19536;HTU21D;9913;51.168;4.124;2023-05-07T12:57:12;20.41;65.88
19536;HTU21D;9913;51.168;4.124;2023-05-07T12:59:41;20.41;66.05
19536;HTU21D;9913;51.168;4.124;2023-05-07T13:02:09;20.47;66.39
19536;HTU21D;9913;51.168;4.124;2023-05-07T13:04:39;20.44;65.53
19536;HTU21D;9913;51.168;4.124;2023-05-07T13:07:09;20.07;64.94
19536;HTU21D;9913;51.168;4.124;2023-05-07T13:09:38;19.82;66.56
19536;HTU21D;9913;51.168;4.124;2023-05-07T13:12:06;19.87;67.00
19536;HTU21D;9913;51.168;4.124;2023-05-07T13:14:34;19.86;66.15
19536;HTU21D;9913;51.168;4.124;2023-05-07T13:17:02;19.51;66.72
19536;HTU21D;9913;51.168;4.124;2023-05-07T13:19:31;19.32;66.43
19536;HTU21D;9913;51.168;4.124;2023-05-07T13:21:59;18.95;66.43
19536;HTU21D;9913;51.168;4.124;2023-05-07T13:24:29;18.57;66.31
19536;HTU21D;9913;51.168;4.124;2023-05-07T13:26:57;18.32;66.81
19536;HTU21D;9913;51.168;4.124;2023-05-07T13:29:25;18.21;65.94
19536;HTU21D;9913;51.168;4.124;2023-05-07T13:31:56;18.09;66.88
19536;HTU21D;9913;51.168;4.124;2023-05-07T13:34:25;18.27;66.33
19536;HTU21D;9913;51.168;4.124;2023-05-07T13:36:53;18.42;66.62
19536;HTU21D;9913;51.168;4.124;2023-05-07T13:39:22;17.96;66.20
19536;HTU21D;9913;51.168;4.124;2023-05-07T13:41:51;17.98;66.65
19536;HTU21D;9913;51.168;4.124;2023-05-07T13:44:20;18.10;66.39
19536;HTU21D;9913;51.168;4.124;2023-05-07T13:46:48;18.61;66.69
19536;HTU21D;9913;51.168;4.124;2023-05-07T13:49:16;18.71;67.23
19536;HTU21D;9913;51.168;4.124;2023-05-07T13:51:44;19.03;66.30
19536;HTU21D;9913;51.168;4.124;2023-05-07T13:54:13;18.92;66.58
19536;HTU21D;9913;51.168;4.124;2023-05-07T13:56:41;18.95;67.02
19536;HTU21D;9913;51.168;4.124;2023-05-07T13:59:11;19.10;66.49
19536;HTU21D;9913;51.168;4.124;2023-05-07T14:01:41;18.96;66.66
19536;HTU21D;9913;51.168;4.124;2023-05-07T14:04:09;19.10;67.02
19536;HTU21D;9913;51.168;4.124;2023-05-07T14:06:37;19.00;66.28
19536;HTU21D;9913;51.168;4.124;2023-05-07T14:09:06;18.95;67.88
19536;HTU21D;9913;51.168;4.124;2023-05-07T14:11:34;18.78;66.25
19536;HTU21D;9913;51.168;4.124;2023-05-07T14:14:02;18.96;66.45
19536;HTU21D;9913;51.168;4.124;2023-05-07T14:16:32;19.30;67.81
19536;HTU21D;9913;51.168;4.124;2023-05-07T14:19:00;19.50;67.02
19536;HTU21D;9913;51.168;4.124;2023-05-07T14:21:29;19.72;66.62
19536;HTU21D;9913;51.168;4.124;2023-05-07T14:23:57;20.17;67.05
19536;HTU21D;9913;51.168;4.124;2023-05-07T14:26:26;20.12;65.79
19536;HTU21D;9913;51.168;4.124;2023-05-07T14:28:55;20.41;66.60
19536;HTU21D;9913;51.168;4.124;2023-05-07T14:31:25;20.76;67.09
19536;HTU21D;9913;51.168;4.124;2023-05-07T14:33:55;20.21;65.66
19536;HTU21D;9913;51.168;4.124;2023-05-07T14:36:25;20.51;65.44
19536;HTU21D;9913;51.168;4.124;2023-05-07T14:38:53;20.56;65.43
19536;HTU21D;9913;51.168;4.124;2023-05-07T14:41:22;20.17;65.14
19536;HTU21D;9913;51.168;4.124;2023-05-07T14:43:50;20.29;65.82
19536;HTU21D;9913;51.168;4.124;2023-05-07T14:46:19;20.93;66.35
19536;HTU21D;9913;51.168;4.124;2023-05-07T14:48:47;21.04;65.43
19536;HTU21D;9913;51.168;4.124;2023-05-07T14:51:17;21.03;65.15
19536;HTU21D;9913;51.168;4.124;2023-05-07T14:53:45;20.74;65.24
19536;HTU21D;9913;51.168;4.124;2023-05-07T14:56:13;20.77;65.50
19536;HTU21D;9913;51.168;4.124;2023-05-07T14:58:42;20.88;65.30
19536;HTU21D;9913;51.168;4.124;2023-05-07T15:01:12;21.20;64.82
19536;HTU21D;9913;51.168;4.124;2023-05-07T15:03:40;21.14;65.00
19536;HTU21D;9913;51.168;4.124;2023-05-07T15:06:08;20.58;64.84
19536;HTU21D;9913;51.168;4.124;2023-05-07T15:08:38;21.11;65.12
19536;HTU21D;9913;51.168;4.124;2023-05-07T15:11:07;21.24;64.08
19536;HTU21D;9913;51.168;4.124;2023-05-07T15:13:35;21.55;65.83
19536;HTU21D;9913;51.168;4.124;2023-05-07T15:16:04;21.52;64.85
19536;HTU21D;9913;51.168;4.124;2023-05-07T15:18:32;21.37;62.76
19536;HTU21D;9913;51.168;4.124;2023-05-07T15:21:00;21.70;64.45
19536;HTU21D;9913;51.168;4.124;2023-05-07T15:23:29;21.04;65.03
19536;HTU21D;9913;51.168;4.124;2023-05-07T15:25:58;20.94;65.04
19536;HTU21D;9913;51.168;4.124;2023-05-07T15:28:28;21.81;64.63
19536;HTU21D;9913;51.168;4.124;2023-05-07T15:30:58;21.88;65.23
19536;HTU21D;9913;51.168;4.124;2023-05-07T15:33:26;21.42;63.96
19536;HTU21D;9913;51.168;4.124;2023-05-07T15:35:54;21.17;64.57
19536;HTU21D;9913;51.168;4.124;2023-05-07T15:38:25;21.10;64.85
19536;HTU21D;9913;51.168;4.124;2023-05-07T15:40:54;20.86;64.02
19536;HTU21D;9913;51.168;4.124;2023-05-07T15:43:24;20.98;64.18
19536;HTU21D;9913;51.168;4.124;2023-05-07T15:45:52;20.09;65.25
19536;HTU21D;9913;51.168;4.124;2023-05-07T15:48:21;20.05;65.17
19536;HTU21D;9913;51.168;4.124;2023-05-07T15:50:49;20.32;65.39
19536;HTU21D;9913;51.168;4.124;2023-05-07T15:53:18;20.54;64.60
19536;HTU21D;9913;51.168;4.124;2023-05-07T15:55:46;20.32;64.91